Terminal Aerodrome Forecast
Issued by NWS

Home | Current Version | Previous Version | Graphics & Text | Print | Product List | Glossary On
Versions: 1 2 3 4 5 6 7 8 9 10 11 12 13 14 15 16 17 18 19 20 21 22 23 24 25 26 27 28 29 30 31 32 33 34 35
000
FTUS43 KLOT 221500 AAB
TAFMDW
TAF AMD
KMDW 221559Z 2216/2312 20009KT 5SM -DZ BR OVC012
     FM221800 20011KT 5SM -DZ BR OVC010
     FM230200 20012KT 4SM BR OVC007 WS020/21045KT
     FM230900 20013KT 4SM -RA BR OVC007=

USA.gov is the U.S. government's official web portal to all federal, state and local government web resources and services.